Portada
METAR-TAF:

METAR-TAF

Aeroports :

Mount Pleasant Municipal Airport

Mount Pleasant, Michigan, Estats Units d'Amèrica

latitud: 43-37N, longitud: 084-44W, altitud: 230 m

Observació

L'informe es va fer fa 25 minuts, a les 01:16 UTC
Vent 9 kt del Sud-Oest
Temperatura 25°C
Humitat 65%
Pressió 1015 hPa
Visibilitat: 16.1 km
Núvols disperses a una alçada de 4600 ft
Núvols disperses a una alçada de 5000 ft
Cel ennuvolat a una alçada de 12000 ft

METAR: KMOP 280116Z AUTO 22009KT 10SM SCT046 SCT050 BKN120 25/18 A2996 RMK AO2 T02520176

Hora: 21:41 (01:41 UTC)


TAF: manca

Observacions i pronòstics meteorològics de més de 4000 aeroports (METAR i TAF).

Les estacions disponibles són els punts grocs i vermells al mapa.

Posi el ratolí al punt desitjat per veure el nom de l'estació.

Feu clic per veure les observacions i els pronòstics meteorològics.

Per canviar el mapa: feu clic els botons verds amb una creu de color negre per apropar; al botó verd amb un guió per allunyar la imatge; o en les fletxes verdes per a mapes adjacents.


METAR-TAF: